Time;durP1;ratioP1;P1;durP2;ratioP2;P2;SDS_P1;SDS_P2;PMS_P1;PMS_P2;Temp;Humidity;BMP_temperature;BMP_pressure;BME280_temperature;BME280_humidity;BME280_pressure;Samples;Min_cycle;Max_cycle;Signal;HPM_P1;HPM_P2
2023/06/02 00:01:03;;;;;;;11.80;5.50;;;;;;;;;;5025051;28;20021;-72
2023/06/02 00:03:33;;;;;;;10.82;5.03;;;;;;;;;;5014863;28;20057;-72
2023/06/02 00:06:00;;;;;;;15.75;5.30;;;;;;;;;;5022045;28;20039;-72
2023/06/02 00:08:31;;;;;;;11.43;5.60;;;;;;;;;;5024717;28;20554;-72
2023/06/02 00:10:56;;;;;;;11.20;5.18;;;;;;;;;;5019556;28;20044;-72
2023/06/02 00:13:22;;;;;;;10.77;4.82;;;;;;;;;;5023468;28;20018;-72
2023/06/02 00:15:48;;;;;;;11.90;5.18;;;;;;;;;;5024909;28;20354;-72
2023/06/02 00:18:14;;;;;;;13.07;5.65;;;;;;;;;;5025253;28;20037;-72
2023/06/02 00:20:41;;;;;;;10.40;5.03;;;;;;;;;;5026183;28;20087;-72
2023/06/02 00:23:08;;;;;;;10.60;5.40;;;;;;;;;;5035114;28;20037;-72
2023/06/02 00:25:34;;;;;;;13.35;5.05;;;;;;;;;;5032874;28;20037;-72
2023/06/02 00:27:59;;;;;;;9.75;4.47;;;;;;;;;;5024678;28;20055;-72
2023/06/02 00:30:24;;;;;;;8.63;4.05;;;;;;;;;;5022544;28;20026;-72
2023/06/02 00:32:50;;;;;;;10.88;5.13;;;;;;;;;;5018214;28;20061;-72
2023/06/02 00:35:15;;;;;;;10.07;4.30;;;;;;;;;;5023821;28;20037;-73
2023/06/02 00:37:41;;;;;;;11.77;4.82;;;;;;;;;;5024672;28;20035;-72
2023/06/02 00:40:07;;;;;;;11.10;4.90;;;;;;;;;;5019488;28;20463;-72
2023/06/02 00:42:32;;;;;;;14.98;5.63;;;;;;;;;;5024281;28;20087;-73
2023/06/02 00:44:58;;;;;;;10.77;4.97;;;;;;;;;;5024743;28;20033;-72
2023/06/02 00:47:23;;;;;;;13.93;4.53;;;;;;;;;;5018902;28;20805;-72
2023/06/02 00:49:48;;;;;;;9.70;4.28;;;;;;;;;;5022937;28;20473;-72
2023/06/02 00:52:16;;;;;;;10.55;4.53;;;;;;;;;;5024479;28;20565;-72
2023/06/02 00:54:41;;;;;;;13.48;4.70;;;;;;;;;;5016544;28;20581;-72
2023/06/02 00:57:07;;;;;;;9.43;4.00;;;;;;;;;;5014024;28;20036;-72
2023/06/02 00:59:32;;;;;;;9.65;4.10;;;;;;;;;;5015080;28;20105;-72
2023/06/02 01:01:58;;;;;;;9.05;3.90;;;;;;;;;;5022469;28;20420;-72
2023/06/02 01:04:23;;;;;;;7.47;4.07;;;;;;;;;;5019529;28;20045;-72
2023/06/02 01:06:50;;;;;;;6.72;3.47;;;;;;;;;;5023736;28;20072;-73
2023/06/02 01:09:17;;;;;;;7.57;4.22;;;;;;;;;;5023989;28;20047;-72
2023/06/02 01:11:43;;;;;;;8.52;4.30;;;;;;;;;;5024215;28;20068;-72
2023/06/02 01:14:10;;;;;;;9.32;4.10;;;;;;;;;;5023427;28;20037;-72
2023/06/02 01:16:35;;;;;;;11.25;3.80;;;;;;;;;;5023847;28;20076;-72
2023/06/02 01:19:06;;;;;;;8.93;3.70;;;;;;;;;;5019679;28;20068;-72
2023/06/02 01:21:37;;;;;;;7.40;3.60;;;;;;;;;;5013609;28;20033;-72
2023/06/02 01:24:03;;;;;;;7.57;3.58;;;;;;;;;;5006937;28;20914;-72
2023/06/02 01:26:33;;;;;;;5.70;3.45;;;;;;;;;;5038971;28;20052;-72
2023/06/02 01:29:00;;;;;;;9.65;4.10;;;;;;;;;;5023234;28;20163;-72
2023/06/02 01:31:46;;;;;;;6.70;3.60;;;;;;;;;;5024502;28;20026;-72
2023/06/02 01:34:22;;;;;;;6.35;3.50;;;;;;;;;;5023397;28;20041;-72
2023/06/02 01:36:50;;;;;;;6.40;3.25;;;;;;;;;;5027542;28;20041;-72
2023/06/02 01:39:16;;;;;;;6.07;3.25;;;;;;;;;;5023093;28;20037;-72
2023/06/02 01:41:44;;;;;;;6.38;3.17;;;;;;;;;;5027468;28;20049;-72
2023/06/02 01:44:11;;;;;;;7.45;3.28;;;;;;;;;;5029110;28;20048;-72
2023/06/02 01:46:37;;;;;;;8.18;3.10;;;;;;;;;;5035534;28;20025;-73
2023/06/02 01:49:02;;;;;;;6.82;3.55;;;;;;;;;;5037125;28;20026;-73
2023/06/02 01:51:28;;;;;;;8.45;3.58;;;;;;;;;;5032027;28;20045;-73
2023/06/02 01:53:53;;;;;;;8.90;2.92;;;;;;;;;;5027047;28;20152;-73
2023/06/02 01:56:18;;;;;;;7.85;3.35;;;;;;;;;;5025727;28;20086;-73
2023/06/02 01:58:44;;;;;;;8.75;3.70;;;;;;;;;;5027497;28;20120;-73
2023/06/02 02:01:09;;;;;;;7.15;3.25;;;;;;;;;;5027694;28;20014;-73
2023/06/02 02:03:37;;;;;;;7.07;3.38;;;;;;;;;;5023416;28;20087;-73
2023/06/02 02:06:03;;;;;;;6.57;3.38;;;;;;;;;;5019159;28;20041;-73
2023/06/02 02:08:28;;;;;;;9.90;3.40;;;;;;;;;;5027180;28;20029;-72
2023/06/02 02:10:54;;;;;;;6.40;3.28;;;;;;;;;;5020016;28;20034;-73
2023/06/02 02:13:19;;;;;;;5.20;3.10;;;;;;;;;;5025885;28;20029;-73
2023/06/02 02:15:45;;;;;;;6.07;3.22;;;;;;;;;;5020759;28;20030;-73
2023/06/02 02:18:10;;;;;;;11.27;3.28;;;;;;;;;;5024615;28;20558;-73
2023/06/02 02:20:42;;;;;;;7.88;3.58;;;;;;;;;;5017039;28;20136;-73
2023/06/02 02:23:07;;;;;;;6.18;3.28;;;;;;;;;;5027233;28;20205;-73
2023/06/02 02:25:33;;;;;;;7.55;3.47;;;;;;;;;;5022513;28;20483;-73
2023/06/02 02:27:58;;;;;;;7.10;3.58;;;;;;;;;;5020252;28;20112;-73
2023/06/02 02:30:23;;;;;;;10.23;4.07;;;;;;;;;;5026455;28;20077;-73
2023/06/02 02:32:51;;;;;;;7.78;3.60;;;;;;;;;;5026528;28;20077;-73
2023/06/02 02:35:16;;;;;;;6.03;3.63;;;;;;;;;;5026289;28;20124;-72
2023/06/02 02:37:43;;;;;;;5.72;3.00;;;;;;;;;;5025286;28;20581;-73
2023/06/02 02:40:09;;;;;;;5.70;3.47;;;;;;;;;;5022772;28;20028;-72
2023/06/02 02:42:34;;;;;;;7.85;3.80;;;;;;;;;;5025351;28;20041;-73
2023/06/02 02:45:02;;;;;;;7.65;3.78;;;;;;;;;;5017650;28;20048;-73
2023/06/02 02:47:27;;;;;;;7.80;4.40;;;;;;;;;;5026662;28;20452;-73
2023/06/02 02:49:53;;;;;;;8.40;3.90;;;;;;;;;;5025618;28;20132;-73
2023/06/02 02:52:18;;;;;;;6.00;3.33;;;;;;;;;;5026890;28;20407;-73
2023/06/02 02:54:43;;;;;;;5.75;3.22;;;;;;;;;;5023184;28;20125;-73
2023/06/02 02:57:09;;;;;;;9.40;3.92;;;;;;;;;;5019597;28;20120;-73
2023/06/02 02:59:35;;;;;;;6.95;3.20;;;;;;;;;;5024954;28;20408;-73
2023/06/02 03:02:05;;;;;;;8.65;3.67;;;;;;;;;;5025535;28;20047;-73
2023/06/02 03:04:34;;;;;;;7.25;3.35;;;;;;;;;;5025837;28;20029;-73
2023/06/02 03:07:01;;;;;;;7.38;3.53;;;;;;;;;;5027433;28;20052;-73
2023/06/02 03:09:27;;;;;;;5.53;3.35;;;;;;;;;;5029835;28;20033;-73
2023/06/02 03:11:52;;;;;;;6.40;3.40;;;;;;;;;;5037642;28;20035;-73
2023/06/02 03:14:17;;;;;;;5.93;3.47;;;;;;;;;;5032331;28;20033;-73
2023/06/02 03:16:44;;;;;;;8.45;3.20;;;;;;;;;;5025516;28;20051;-73
2023/06/02 03:19:12;;;;;;;11.13;3.30;;;;;;;;;;5023848;28;20123;-73
2023/06/02 03:21:41;;;;;;;9.13;4.25;;;;;;;;;;5014002;28;20037;-73
2023/06/02 03:24:15;;;;;;;8.18;4.18;;;;;;;;;;5025277;28;20033;-73
2023/06/02 03:26:41;;;;;;;9.13;3.53;;;;;;;;;;5025308;28;20527;-73
2023/06/02 03:29:08;;;;;;;6.82;4.00;;;;;;;;;;5024282;28;20041;-72
2023/06/02 03:31:33;;;;;;;12.48;4.05;;;;;;;;;;5025294;28;20490;-73
2023/06/02 03:33:58;;;;;;;8.30;4.28;;;;;;;;;;5025594;28;20040;-73
2023/06/02 03:36:25;;;;;;;7.57;4.38;;;;;;;;;;5025775;28;20124;-73
2023/06/02 03:38:51;;;;;;;11.65;3.90;;;;;;;;;;5022410;28;20045;-73
2023/06/02 03:41:16;;;;;;;10.88;4.38;;;;;;;;;;5024449;28;20025;-73
2023/06/02 03:43:42;;;;;;;12.43;4.18;;;;;;;;;;5014877;28;20025;-73
2023/06/02 03:46:07;;;;;;;11.65;4.20;;;;;;;;;;5019287;28;20036;-73
2023/06/02 03:48:33;;;;;;;10.48;4.15;;;;;;;;;;5021864;28;20041;-73
2023/06/02 03:50:58;;;;;;;9.73;4.45;;;;;;;;;;5024808;28;20100;-73
2023/06/02 03:53:24;;;;;;;13.27;4.22;;;;;;;;;;5024543;28;20043;-73
2023/06/02 03:55:49;;;;;;;10.38;4.80;;;;;;;;;;5025355;28;20040;-73
2023/06/02 03:58:14;;;;;;;12.82;4.40;;;;;;;;;;5022400;28;20055;-73
2023/06/02 04:00:41;;;;;;;10.65;4.45;;;;;;;;;;5023522;28;20029;-73
2023/06/02 04:03:09;;;;;;;13.18;5.97;;;;;;;;;;5023324;28;20111;-73
2023/06/02 04:05:35;;;;;;;16.67;5.85;;;;;;;;;;5022257;28;20128;-73
2023/06/02 04:08:00;;;;;;;14.25;6.03;;;;;;;;;;5015063;28;20171;-73
2023/06/02 04:10:28;;;;;;;13.88;5.78;;;;;;;;;;5015256;28;20053;-73
2023/06/02 04:12:53;;;;;;;15.13;5.60;;;;;;;;;;5038256;28;20034;-73
2023/06/02 04:15:18;;;;;;;12.48;6.30;;;;;;;;;;5023826;28;20055;-72
2023/06/02 04:17:44;;;;;;;12.10;6.07;;;;;;;;;;5016868;28;20048;-73
2023/06/02 04:20:09;;;;;;;14.20;6.28;;;;;;;;;;5024106;28;20037;-73
2023/06/02 04:22:35;;;;;;;10.45;6.20;;;;;;;;;;5024948;28;20539;-73
2023/06/02 04:25:00;;;;;;;16.05;6.03;;;;;;;;;;5024883;28;20021;-72
2023/06/02 04:27:26;;;;;;;14.65;5.43;;;;;;;;;;5025229;28;20042;-72
2023/06/02 04:29:51;;;;;;;13.18;5.32;;;;;;;;;;5024806;28;20029;-72
2023/06/02 04:32:17;;;;;;;15.32;5.93;;;;;;;;;;5026965;28;20065;-73
2023/06/02 04:34:42;;;;;;;10.45;5.03;;;;;;;;;;5032176;28;20075;-72
2023/06/02 04:37:07;;;;;;;11.27;4.70;;;;;;;;;;5033223;28;20498;-73
2023/06/02 04:39:35;;;;;;;12.85;4.50;;;;;;;;;;5026499;28;20120;-72
2023/06/02 04:42:01;;;;;;;13.15;4.43;;;;;;;;;;5024329;28;20469;-73
2023/06/02 04:44:26;;;;;;;11.65;3.92;;;;;;;;;;5024603;28;20038;-72
2023/06/02 04:46:51;;;;;;;12.40;4.25;;;;;;;;;;5024826;28;20040;-73
2023/06/02 04:49:16;;;;;;;6.72;3.85;;;;;;;;;;5023191;28;20029;-72
2023/06/02 04:51:42;;;;;;;9.68;4.07;;;;;;;;;;5023189;28;20061;-73
2023/06/02 04:54:08;;;;;;;8.10;3.60;;;;;;;;;;5022609;28;20065;-72
2023/06/02 04:56:34;;;;;;;8.48;3.30;;;;;;;;;;5023129;28;20472;-72
2023/06/02 04:58:59;;;;;;;10.70;4.18;;;;;;;;;;5023993;28;20080;-73
2023/06/02 05:01:25;;;;;;;10.10;3.70;;;;;;;;;;5022754;28;20357;-72
2023/06/02 05:03:51;;;;;;;8.00;3.78;;;;;;;;;;5017813;28;20081;-73
2023/06/02 05:06:16;;;;;;;11.10;4.03;;;;;;;;;;5015025;28;20064;-73
2023/06/02 05:08:41;;;;;;;9.13;3.75;;;;;;;;;;5020079;28;20045;-72
2023/06/02 05:11:07;;;;;;;9.88;3.28;;;;;;;;;;5027862;28;20041;-73
2023/06/02 05:13:32;;;;;;;10.80;3.47;;;;;;;;;;5023984;28;20411;-73
2023/06/02 05:15:57;;;;;;;8.82;3.60;;;;;;;;;;5016087;28;20021;-73
2023/06/02 05:18:23;;;;;;;9.43;3.38;;;;;;;;;;5026405;28;20025;-73
2023/06/02 05:20:48;;;;;;;9.43;3.20;;;;;;;;;;5027111;28;20041;-73
2023/06/02 05:23:14;;;;;;;7.63;3.15;;;;;;;;;;5026708;28;20064;-72
2023/06/02 05:25:40;;;;;;;10.00;3.38;;;;;;;;;;5028050;28;20446;-72
2023/06/02 05:28:06;;;;;;;8.73;3.10;;;;;;;;;;5026849;28;20402;-72
2023/06/02 05:30:31;;;;;;;9.90;3.10;;;;;;;;;;5025141;28;20521;-73
2023/06/02 05:32:56;;;;;;;6.82;3.45;;;;;;;;;;5024686;28;20034;-72
2023/06/02 05:35:22;;;;;;;6.93;3.33;;;;;;;;;;5020236;28;20060;-73
2023/06/02 05:37:47;;;;;;;9.23;2.95;;;;;;;;;;5025988;28;20057;-72
2023/06/02 05:40:13;;;;;;;9.05;3.20;;;;;;;;;;5022685;28;20045;-72
2023/06/02 05:42:39;;;;;;;7.38;3.00;;;;;;;;;;5026488;28;20131;-72
2023/06/02 05:45:05;;;;;;;6.72;3.20;;;;;;;;;;5023716;28;20117;-73
2023/06/02 05:47:31;;;;;;;23.90;4.13;;;;;;;;;;5026314;28;20570;-73
2023/06/02 05:49:57;;;;;;;8.15;3.58;;;;;;;;;;5026357;28;20065;-73
2023/06/02 05:52:22;;;;;;;7.25;2.90;;;;;;;;;;5027021;28;20026;-73
2023/06/02 05:54:47;;;;;;;5.45;2.88;;;;;;;;;;5027920;28;20033;-73
2023/06/02 05:57:13;;;;;;;10.20;3.65;;;;;;;;;;5031282;28;20135;-73
2023/06/02 05:59:39;;;;;;;9.90;2.97;;;;;;;;;;5038638;28;20068;-73
2023/06/02 06:02:06;;;;;;;7.70;3.25;;;;;;;;;;5033833;28;20091;-73
2023/06/02 06:04:31;;;;;;;7.97;3.30;;;;;;;;;;5022747;28;20087;-74
2023/06/02 06:06:58;;;;;;;12.90;3.72;;;;;;;;;;5025165;28;20511;-73
2023/06/02 06:09:23;;;;;;;8.95;3.20;;;;;;;;;;5020626;28;20076;-73
2023/06/02 06:11:49;;;;;;;13.88;3.40;;;;;;;;;;5024953;28;20060;-73
2023/06/02 06:14:14;;;;;;;7.00;3.40;;;;;;;;;;5025630;28;20098;-75
2023/06/02 06:16:41;;;;;;;10.63;3.90;;;;;;;;;;5026455;28;20041;-73
2023/06/02 06:19:06;;;;;;;9.63;3.55;;;;;;;;;;5026561;28;20036;-73
2023/06/02 06:21:32;;;;;;;12.40;3.58;;;;;;;;;;5025261;28;20038;-73
2023/06/02 06:23:57;;;;;;;11.68;3.83;;;;;;;;;;5026109;28;20034;-73
2023/06/02 06:26:22;;;;;;;11.88;3.35;;;;;;;;;;5026826;28;20096;-73
2023/06/02 06:28:48;;;;;;;9.82;3.22;;;;;;;;;;5025852;28;20041;-73
2023/06/02 06:31:13;;;;;;;11.32;4.03;;;;;;;;;;5026991;28;20032;-73
2023/06/02 06:33:39;;;;;;;8.45;3.50;;;;;;;;;;5024296;28;20082;-72
2023/06/02 06:36:04;;;;;;;9.32;4.15;;;;;;;;;;5025597;28;20037;-73
2023/06/02 06:38:29;;;;;;;6.30;3.53;;;;;;;;;;5025537;28;20064;-73
2023/06/02 06:40:55;;;;;;;7.93;4.07;;;;;;;;;;5024900;28;20041;-73
2023/06/02 06:43:20;;;;;;;12.23;3.83;;;;;;;;;;5025277;28;20049;-73
2023/06/02 06:45:46;;;;;;;12.90;4.07;;;;;;;;;;5026121;28;20037;-73
2023/06/02 06:48:11;;;;;;;15.30;4.18;;;;;;;;;;5025576;28;20041;-73
2023/06/02 06:50:37;;;;;;;15.85;4.07;;;;;;;;;;5024100;28;20041;-73
2023/06/02 06:53:05;;;;;;;9.73;4.50;;;;;;;;;;5023810;28;20438;-73
2023/06/02 06:55:30;;;;;;;8.50;3.65;;;;;;;;;;5024434;28;20090;-73
2023/06/02 06:57:56;;;;;;;9.98;4.20;;;;;;;;;;5018126;28;20503;-73
2023/06/02 07:00:22;;;;;;;11.10;4.30;;;;;;;;;;5015481;28;20045;-73
2023/06/02 07:02:48;;;;;;;12.13;3.63;;;;;;;;;;5020022;28;20064;-73
2023/06/02 07:05:14;;;;;;;12.43;4.30;;;;;;;;;;5022067;28;20615;-73
2023/06/02 07:07:40;;;;;;;9.27;4.10;;;;;;;;;;5011962;28;20025;-73
2023/06/02 07:10:06;;;;;;;12.02;4.25;;;;;;;;;;5018197;28;20021;-73
2023/06/02 07:12:31;;;;;;;8.77;3.75;;;;;;;;;;5016558;28;20041;-73
2023/06/02 07:14:57;;;;;;;15.18;4.30;;;;;;;;;;5010552;28;20155;-73
2023/06/02 07:17:22;;;;;;;12.02;4.13;;;;;;;;;;5016361;28;20045;-73
2023/06/02 07:19:47;;;;;;;11.45;4.22;;;;;;;;;;5014592;28;20418;-73
2023/06/02 07:22:13;;;;;;;15.82;4.00;;;;;;;;;;5034648;28;20029;-72
2023/06/02 07:24:39;;;;;;;8.20;4.45;;;;;;;;;;5038129;28;20125;-73
2023/06/02 07:27:05;;;;;;;13.77;4.60;;;;;;;;;;5028096;28;20036;-73
2023/06/02 07:29:30;;;;;;;13.02;5.07;;;;;;;;;;5009307;28;20034;-72
2023/06/02 07:31:55;;;;;;;13.23;4.50;;;;;;;;;;5013763;28;20042;-73
2023/06/02 07:34:21;;;;;;;10.27;4.07;;;;;;;;;;5016013;28;20018;-72
2023/06/02 07:36:48;;;;;;;12.88;4.60;;;;;;;;;;5017497;28;20427;-72
2023/06/02 07:39:13;;;;;;;15.00;5.20;;;;;;;;;;5008895;28;20081;-73
2023/06/02 07:41:39;;;;;;;9.02;4.15;;;;;;;;;;5011438;28;20061;-72
2023/06/02 07:44:04;;;;;;;9.30;4.18;;;;;;;;;;5025261;28;20030;-73
2023/06/02 07:46:29;;;;;;;17.83;4.90;;;;;;;;;;5024292;28;20040;-73
2023/06/02 07:48:55;;;;;;;10.20;4.50;;;;;;;;;;5024572;28;20079;-73
2023/06/02 07:51:20;;;;;;;11.10;4.70;;;;;;;;;;5023736;28;20041;-73
2023/06/02 07:53:46;;;;;;;11.50;4.80;;;;;;;;;;5024786;28;20047;-73
2023/06/02 07:56:11;;;;;;;9.90;3.80;;;;;;;;;;5020020;28;20038;-73
2023/06/02 07:58:36;;;;;;;14.48;4.55;;;;;;;;;;5011469;28;20041;-73
2023/06/02 08:01:02;;;;;;;12.32;4.97;;;;;;;;;;5020342;28;20013;-73
2023/06/02 08:03:27;;;;;;;10.85;4.53;;;;;;;;;;5023032;28;20057;-73
2023/06/02 08:05:53;;;;;;;9.30;4.53;;;;;;;;;;5024606;28;20049;-73
2023/06/02 08:08:18;;;;;;;10.68;5.43;;;;;;;;;;5023453;28;20720;-73
2023/06/02 08:10:43;;;;;;;10.60;4.90;;;;;;;;;;5017023;28;20033;-73
2023/06/02 08:13:11;;;;;;;11.32;4.85;;;;;;;;;;5016422;28;20037;-73
2023/06/02 08:15:36;;;;;;;10.80;4.50;;;;;;;;;;5018468;28;20064;-73
2023/06/02 08:18:01;;;;;;;12.70;4.07;;;;;;;;;;5021291;28;20080;-73
2023/06/02 08:20:28;;;;;;;20.15;5.50;;;;;;;;;;5019636;28;20256;-73
2023/06/02 08:22:53;;;;;;;8.40;4.07;;;;;;;;;;5023311;28;20498;-73
2023/06/02 08:25:18;;;;;;;10.50;4.45;;;;;;;;;;5019236;28;20029;-73
2023/06/02 08:27:44;;;;;;;8.35;4.70;;;;;;;;;;5016641;28;20078;-72
2023/06/02 08:30:13;;;;;;;10.60;3.95;;;;;;;;;;5020693;28;20148;-72
2023/06/02 08:32:38;;;;;;;10.45;4.63;;;;;;;;;;5023472;28;20041;-72
2023/06/02 08:35:04;;;;;;;7.57;4.35;;;;;;;;;;5024716;28;20037;-72
2023/06/02 08:37:31;;;;;;;13.38;4.53;;;;;;;;;;5023162;28;20160;-72
2023/06/02 08:39:58;;;;;;;16.50;4.22;;;;;;;;;;5024957;28;20018;-72
2023/06/02 08:42:26;;;;;;;10.57;4.40;;;;;;;;;;5025700;28;20811;-72
2023/06/02 08:44:51;;;;;;;15.88;4.28;;;;;;;;;;5021542;28;20067;-73
2023/06/02 08:47:21;;;;;;;10.85;5.22;;;;;;;;;;5039054;28;20105;-73
2023/06/02 08:49:47;;;;;;;15.05;4.22;;;;;;;;;;5032863;28;20048;-72
2023/06/02 08:52:15;;;;;;;11.77;3.95;;;;;;;;;;5027043;28;20029;-73
2023/06/02 08:54:41;;;;;;;12.75;4.22;;;;;;;;;;5026412;28;20572;-72
2023/06/02 08:57:09;;;;;;;11.35;4.65;;;;;;;;;;5024118;28;20034;-72
2023/06/02 08:59:36;;;;;;;9.35;4.25;;;;;;;;;;5026624;28;20030;-73
2023/06/02 09:02:01;;;;;;;9.70;4.10;;;;;;;;;;5025759;28;20045;-72
2023/06/02 09:04:27;;;;;;;10.57;4.80;;;;;;;;;;5026939;28;20033;-72
2023/06/02 09:07:11;;;;;;;11.20;4.18;;;;;;;;;;5025851;28;20030;-73
2023/06/02 09:09:51;;;;;;;10.32;4.25;;;;;;;;;;5022404;28;20687;-73
2023/06/02 09:12:18;;;;;;;9.90;4.85;;;;;;;;;;5025456;28;20041;-73
2023/06/02 09:14:45;;;;;;;11.60;4.05;;;;;;;;;;5025189;28;20449;-72
2023/06/02 09:17:27;;;;;;;8.98;4.18;;;;;;;;;;5025973;28;20151;-73
2023/06/02 09:19:55;;;;;;;10.10;4.53;;;;;;;;;;5019405;28;20036;-73
2023/06/02 09:22:20;;;;;;;9.60;4.00;;;;;;;;;;5024982;28;20517;-73
2023/06/02 09:24:46;;;;;;;12.55;4.07;;;;;;;;;;5025816;28;20562;-72
2023/06/02 09:27:12;;;;;;;10.25;4.10;;;;;;;;;;5026122;28;20057;-73
2023/06/02 09:29:39;;;;;;;12.27;4.43;;;;;;;;;;5027402;28;20530;-73
2023/06/02 09:32:14;;;;;;;7.55;4.25;;;;;;;;;;5026086;28;20033;-73
2023/06/02 09:34:39;;;;;;;9.93;4.45;;;;;;;;;;5016587;28;20080;-72
2023/06/02 09:37:15;;;;;;;9.20;4.30;;;;;;;;;;5030720;28;20056;-73
2023/06/02 09:39:43;;;;;;;8.65;4.40;;;;;;;;;;5013594;28;20033;-72
2023/06/02 09:42:12;;;;;;;11.18;4.75;;;;;;;;;;5026580;28;20068;-72
2023/06/02 09:44:38;;;;;;;9.85;4.15;;;;;;;;;;5026966;28;20140;-72
2023/06/02 09:47:22;;;;;;;12.43;4.57;;;;;;;;;;5024420;28;20071;-71
2023/06/02 09:49:47;;;;;;;;;;;;;;;;;;5012050;28;20712;-71
2023/06/02 09:52:17;;;;;;;10.40;3.95;;;;;;;;;;5018868;28;19927;-71
2023/06/02 09:54:44;;;;;;;13.07;4.65;;;;;;;;;;5018019;28;20385;-71
2023/06/02 09:57:11;;;;;;;8.95;3.95;;;;;;;;;;5018903;28;20120;-72
2023/06/02 09:59:37;;;;;;;6.15;3.70;;;;;;;;;;5024121;28;20389;-72
2023/06/02 10:02:03;;;;;;;8.95;4.10;;;;;;;;;;5018937;28;20136;-72
2023/06/02 10:04:28;;;;;;;10.02;4.68;;;;;;;;;;5023407;28;20483;-71
2023/06/02 10:07:13;;;;;;;8.45;4.28;;;;;;;;;;5026143;28;20465;-72
2023/06/02 10:09:50;;;;;;;10.02;4.20;;;;;;;;;;5026333;28;20574;-72
2023/06/02 10:12:40;;;;;;;11.52;4.00;;;;;;;;;;5035947;28;20629;-72
2023/06/02 10:15:30;;;;;;;12.10;4.10;;;;;;;;;;5026379;28;20040;-72
2023/06/02 10:18:15;;;;;;;8.63;3.80;;;;;;;;;;5023716;28;20045;-72
2023/06/02 10:21:15;;;;;;;9.38;4.45;;;;;;;;;;5021961;28;20715;-72
2023/06/02 10:23:55;;;;;;;8.45;4.18;;;;;;;;;;5010947;28;20033;-71
2023/06/02 10:26:44;;;;;;;8.90;4.10;;;;;;;;;;5022953;28;20049;-71
2023/06/02 10:29:10;;;;;;;7.90;3.85;;;;;;;;;;5014239;28;20041;-71
2023/06/02 10:31:35;;;;;;;12.40;4.25;;;;;;;;;;5013449;28;20022;-71
2023/06/02 10:34:01;;;;;;;11.15;4.20;;;;;;;;;;5026709;28;20136;-71
2023/06/02 10:36:27;;;;;;;9.55;4.50;;;;;;;;;;5024751;28;20029;-71
2023/06/02 10:38:53;;;;;;;12.10;4.30;;;;;;;;;;5023694;28;20034;-71
2023/06/02 10:41:21;;;;;;;10.23;4.45;;;;;;;;;;5025061;28;20511;-71
2023/06/02 10:44:20;;;;;;;11.13;4.63;;;;;;;;;;5025854;28;20037;-71
2023/06/02 10:46:45;;;;;;;9.20;3.72;;;;;;;;;;5023710;28;20048;-71
2023/06/02 10:49:49;;;;;;;9.05;4.20;;;;;;;;;;5026266;28;20025;-71
2023/06/02 10:52:14;;;;;;;9.68;4.07;;;;;;;;;;5006597;28;20042;-71
2023/06/02 10:54:39;;;;;;;13.32;4.55;;;;;;;;;;5005562;28;20060;-71
2023/06/02 10:57:05;;;;;;;11.50;4.28;;;;;;;;;;5001151;28;20038;-71
2023/06/02 10:59:32;;;;;;;9.20;4.03;;;;;;;;;;4998461;28;20219;-71
2023/06/02 11:01:58;;;;;;;9.02;4.22;;;;;;;;;;4998163;28;20392;-71
2023/06/02 11:04:31;;;;;;;14.20;4.20;;;;;;;;;;5006717;28;20025;-72
2023/06/02 11:07:18;;;;;;;;;;;;;;;;;;5006707;28;20069;-71
2023/06/02 11:09:45;;;;;;;10.02;4.40;;;;;;;;;;5002736;28;19966;-71
2023/06/02 11:12:12;;;;;;;9.20;3.83;;;;;;;;;;5004609;28;20073;-71
2023/06/02 11:15:00;;;;;;;6.57;3.50;;;;;;;;;;4999473;28;20038;-71
2023/06/02 11:17:32;;;;;;;8.82;4.00;;;;;;;;;;5005189;28;20148;-71
2023/06/02 11:19:57;;;;;;;9.43;4.57;;;;;;;;;;5005461;28;20066;-71
2023/06/02 11:22:30;;;;;;;9.43;4.35;;;;;;;;;;5000074;28;20049;-71
2023/06/02 11:24:55;;;;;;;9.43;4.18;;;;;;;;;;5006236;28;20053;-71
2023/06/02 11:27:37;;;;;;;8.50;3.80;;;;;;;;;;5005859;28;20050;-72
2023/06/02 11:30:09;;;;;;;11.18;4.82;;;;;;;;;;5007383;28;20118;-71
2023/06/02 11:32:34;;;;;;;12.40;4.43;;;;;;;;;;5013954;28;20045;-71
2023/06/02 11:35:07;;;;;;;11.52;4.72;;;;;;;;;;5012927;28;20034;-71
2023/06/02 11:37:40;;;;;;;8.52;4.13;;;;;;;;;;4991992;28;20037;-71
2023/06/02 11:40:07;;;;;;;9.83;4.60;;;;;;;;;;5005635;28;20100;-71
2023/06/02 11:42:37;;;;;;;11.63;4.70;;;;;;;;;;5004241;28;20077;-71
2023/06/02 11:45:03;;;;;;;6.95;4.28;;;;;;;;;;4992510;28;20264;-71
2023/06/02 11:47:29;;;;;;;10.55;4.38;;;;;;;;;;4998614;28;20073;-72
2023/06/02 11:49:54;;;;;;;7.68;4.30;;;;;;;;;;4992559;28;20050;-71
2023/06/02 11:52:20;;;;;;;10.02;4.47;;;;;;;;;;5004919;28;20483;-71
2023/06/02 11:54:52;;;;;;;12.38;5.07;;;;;;;;;;4988754;28;20057;-71
2023/06/02 11:57:29;;;;;;;9.95;5.32;;;;;;;;;;5001334;28;20108;-71
2023/06/02 12:00:15;;;;;;;14.52;5.65;;;;;;;;;;5005060;28;20032;-71
2023/06/02 12:02:53;;;;;;;11.82;5.43;;;;;;;;;;4996258;28;20049;-71
2023/06/02 12:05:35;;;;;;;14.75;4.85;;;;;;;;;;5004620;28;20040;-71
2023/06/02 12:08:15;;;;;;;10.05;3.92;;;;;;;;;;5004753;28;20410;-71
2023/06/02 12:10:41;;;;;;;11.32;4.85;;;;;;;;;;5003556;28;20025;-71
2023/06/02 12:13:07;;;;;;;12.25;4.60;;;;;;;;;;5004958;28;20021;-72
2023/06/02 12:15:33;;;;;;;11.55;5.13;;;;;;;;;;5004139;28;20065;-71
2023/06/02 12:18:06;;;;;;;15.43;5.03;;;;;;;;;;5003916;28;20567;-71
2023/06/02 12:20:42;;;;;;;13.05;5.35;;;;;;;;;;5004873;28;20053;-71
2023/06/02 12:23:11;;;;;;;10.73;4.20;;;;;;;;;;5004313;28;20037;-71
2023/06/02 12:25:37;;;;;;;7.47;4.20;;;;;;;;;;5005104;28;20026;-71
2023/06/02 12:28:06;;;;;;;13.70;4.40;;;;;;;;;;5004330;28;20044;-71
2023/06/02 12:30:32;;;;;;;9.98;5.00;;;;;;;;;;5005126;28;20045;-71
2023/06/02 12:33:08;;;;;;;9.07;4.93;;;;;;;;;;5010125;28;20038;-71
2023/06/02 12:35:33;;;;;;;11.63;4.60;;;;;;;;;;5015293;28;20523;-71
2023/06/02 12:37:58;;;;;;;11.90;4.75;;;;;;;;;;4998393;28;20037;-71
2023/06/02 12:40:24;;;;;;;10.52;4.90;;;;;;;;;;5010294;28;20024;-69
2023/06/02 12:42:49;;;;;;;11.23;4.68;;;;;;;;;;4991552;28;20638;-70
2023/06/02 12:45:14;;;;;;;9.00;3.47;;;;;;;;;;4987168;28;20034;-70
2023/06/02 12:47:40;;;;;;;11.38;5.00;;;;;;;;;;5004493;28;20444;-69
2023/06/02 12:50:08;;;;;;;10.15;4.50;;;;;;;;;;5003969;28;20674;-70
2023/06/02 12:52:33;;;;;;;8.02;4.65;;;;;;;;;;5005448;28;20040;-70
2023/06/02 12:54:59;;;;;;;15.98;5.40;;;;;;;;;;5008066;28;20026;-69
2023/06/02 12:57:26;;;;;;;12.60;4.40;;;;;;;;;;5012083;28;20145;-69
2023/06/02 12:59:51;;;;;;;12.38;5.82;;;;;;;;;;5011375;28;20790;-69
2023/06/02 13:02:16;;;;;;;17.55;5.95;;;;;;;;;;5005217;28;20062;-69
2023/06/02 13:04:44;;;;;;;14.35;5.78;;;;;;;;;;5004865;28;20121;-70
2023/06/02 13:07:10;;;;;;;12.23;5.60;;;;;;;;;;5003875;28;20022;-69
2023/06/02 13:09:35;;;;;;;12.18;4.57;;;;;;;;;;5004230;28;20030;-69
2023/06/02 13:12:01;;;;;;;13.32;4.70;;;;;;;;;;5003651;28;20033;-70
2023/06/02 13:14:26;;;;;;;13.30;5.53;;;;;;;;;;5003269;28;20026;-69
2023/06/02 13:16:52;;;;;;;8.20;4.50;;;;;;;;;;5002185;28;20042;-69
2023/06/02 13:19:18;;;;;;;12.95;5.43;;;;;;;;;;5003862;28;20506;-69
2023/06/02 13:21:45;;;;;;;13.32;5.53;;;;;;;;;;5001588;28;20026;-69
2023/06/02 13:24:11;;;;;;;13.35;4.72;;;;;;;;;;5002320;28;20037;-69
2023/06/02 13:26:36;;;;;;;8.27;4.45;;;;;;;;;;5001548;28;20537;-69
2023/06/02 13:29:01;;;;;;;9.70;5.05;;;;;;;;;;5002774;28;20037;-69
2023/06/02 13:31:27;;;;;;;10.95;4.57;;;;;;;;;;5006392;28;20113;-69
2023/06/02 13:33:52;;;;;;;9.95;4.63;;;;;;;;;;5007625;28;20026;-69
2023/06/02 13:36:18;;;;;;;11.48;6.07;;;;;;;;;;5006810;28;20038;-69
2023/06/02 13:38:45;;;;;;;9.25;4.93;;;;;;;;;;5004348;28;20030;-69
2023/06/02 13:41:10;;;;;;;10.15;5.03;;;;;;;;;;5006473;28;20646;-69
2023/06/02 13:43:35;;;;;;;15.70;5.30;;;;;;;;;;5006764;28;20104;-69
2023/06/02 13:46:01;;;;;;;9.55;4.50;;;;;;;;;;5006658;28;20053;-69
2023/06/02 13:48:26;;;;;;;10.52;4.70;;;;;;;;;;5006648;28;20112;-69
2023/06/02 13:50:51;;;;;;;13.15;4.82;;;;;;;;;;5006938;28;20461;-69
2023/06/02 13:53:17;;;;;;;8.50;4.50;;;;;;;;;;5006531;28;20034;-69
2023/06/02 13:55:42;;;;;;;7.90;4.82;;;;;;;;;;5006433;28;20036;-69
2023/06/02 13:58:07;;;;;;;8.35;4.97;;;;;;;;;;5006612;28;20025;-69
2023/06/02 14:00:35;;;;;;;8.30;4.32;;;;;;;;;;5006232;28;20038;-69
2023/06/02 14:03:00;;;;;;;11.35;4.55;;;;;;;;;;5004934;28;20119;-69
2023/06/02 14:05:25;;;;;;;9.93;4.78;;;;;;;;;;5006536;28;20523;-69
2023/06/02 14:07:51;;;;;;;11.75;4.75;;;;;;;;;;5005570;28;20028;-69
2023/06/02 14:10:16;;;;;;;9.50;5.05;;;;;;;;;;5005722;28;20022;-69
2023/06/02 14:12:42;;;;;;;15.90;5.65;;;;;;;;;;5005285;28;20189;-69
2023/06/02 14:15:09;;;;;;;8.48;4.60;;;;;;;;;;5006258;28;20030;-69
2023/06/02 14:17:34;;;;;;;11.55;4.63;;;;;;;;;;5007781;28;20541;-69
2023/06/02 14:19:59;;;;;;;10.65;5.47;;;;;;;;;;5013363;28;20097;-68
2023/06/02 14:22:25;;;;;;;9.52;4.50;;;;;;;;;;5012903;28;20060;-69
2023/06/02 14:24:50;;;;;;;10.32;4.55;;;;;;;;;;5003021;28;20060;-69
2023/06/02 14:27:16;;;;;;;11.25;4.32;;;;;;;;;;5003998;28;20108;-69
2023/06/02 14:29:41;;;;;;;8.95;4.40;;;;;;;;;;5006247;28;20547;-69
2023/06/02 14:32:07;;;;;;;11.18;4.80;;;;;;;;;;5002104;28;20026;-70
2023/06/02 14:34:32;;;;;;;11.55;4.45;;;;;;;;;;5005773;28;20030;-71
2023/06/02 14:36:58;;;;;;;10.95;4.03;;;;;;;;;;5004976;28;20010;-71